Time;durP1;ratioP1;P1;durP2;ratioP2;P2;SDS_P1;SDS_P2;PMS_P1;PMS_P2;Temp;Humidity;BMP_temperature;BMP_pressure;BME280_temperature;BME280_humidity;BME280_pressure;Samples;Min_cycle;Max_cycle;Signal;HPM_P1;HPM_P2
2019/05/21 00:01:15;;;;;;;36.9;26;;;;;;;;;;;;;
2019/05/21 00:03:48;;;;;;;32.4;23.6;;;;;;;;;;;;;
2019/05/21 00:06:22;;;;;;;36.5;24.9;;;;;;;;;;;;;
2019/05/21 00:08:52;;;;;;;35.9;23.6;;;;;;;;;;;;;
2019/05/21 00:11:17;;;;;;;30.4;21.8;;;;;;;;;;;;;
2019/05/21 00:13:42;;;;;;;30.5;21.7;;;;;;;;;;;;;
2019/05/21 00:16:07;;;;;;;33.4;23.1;;;;;;;;;;;;;
2019/05/21 00:18:33;;;;;;;33.5;23.4;;;;;;;;;;;;;
2019/05/21 00:20:58;;;;;;;36.1;24.1;;;;;;;;;;;;;
2019/05/21 00:23:23;;;;;;;33.8;23.1;;;;;;;;;;;;;
2019/05/21 00:25:48;;;;;;;33;22.6;;;;;;;;;;;;;
2019/05/21 00:28:14;;;;;;;31.6;21.9;;;;;;;;;;;;;
2019/05/21 00:30:39;;;;;;;30.9;21.6;;;;;;;;;;;;;
2019/05/21 00:33:05;;;;;;;31.5;21.7;;;;;;;;;;;;;
2019/05/21 00:35:43;;;;;;;30.5;21.5;;;;;;;;;;;;;
2019/05/21 00:37:56;;;;;;;32.2;22.3;;;;;;;;;;;;;
2019/05/21 00:40:21;;;;;;;35.2;22.6;;;;;;;;;;;;;
2019/05/21 00:42:46;;;;;;;30.8;21.8;;;;;;;;;;;;;
2019/05/21 00:45:11;;;;;;;31.8;21;;;;;;;;;;;;;
2019/05/21 00:47:36;;;;;;;32.6;22.6;;;;;;;;;;;;;
2019/05/21 00:50:01;;;;;;;31.1;21.7;;;;;;;;;;;;;
2019/05/21 00:52:27;;;;;;;32.7;22.6;;;;;;;;;;;;;
2019/05/21 00:54:52;;;;;;;31.8;21.6;;;;;;;;;;;;;
2019/05/21 00:57:17;;;;;;;33.6;22.7;;;;;;;;;;;;;
2019/05/21 00:59:42;;;;;;;33.3;22.2;;;;;;;;;;;;;
2019/05/21 01:02:07;;;;;;;34.7;22.6;;;;;;;;;;;;;
2019/05/21 01:04:32;;;;;;;35.3;22.9;;;;;;;;;;;;;
2019/05/21 01:06:57;;;;;;;34.6;22.5;;;;;;;;;;;;;
2019/05/21 01:09:22;;;;;;;33.9;22.7;;;;;;;;;;;;;
2019/05/21 01:11:47;;;;;;;37;22.9;;;;;;;;;;;;;
2019/05/21 01:14:12;;;;;;;29.7;20.8;;;;;;;;;;;;;
2019/05/21 01:16:37;;;;;;;31;20.4;;;;;;;;;;;;;
2019/05/21 01:19:03;;;;;;;31.9;20.8;;;;;;;;;;;;;
2019/05/21 01:21:28;;;;;;;29.1;19.5;;;;;;;;;;;;;
2019/05/21 01:23:53;;;;;;;31.6;20.2;;;;;;;;;;;;;
2019/05/21 01:26:18;;;;;;;27.8;18.8;;;;;;;;;;;;;
2019/05/21 01:28:45;;;;;;;27.2;18.2;;;;;;;;;;;;;
2019/05/21 01:31:10;;;;;;;29.1;19.3;;;;;;;;;;;;;
2019/05/21 01:33:35;;;;;;;25.8;18;;;;;;;;;;;;;
2019/05/21 01:36:00;;;;;;;27.5;18.7;;;;;;;;;;;;;
2019/05/21 01:38:25;;;;;;;27.9;18.5;;;;;;;;;;;;;
2019/05/21 01:40:51;;;;;;;29;19.1;;;;;;;;;;;;;
2019/05/21 01:43:16;;;;;;;28.7;19.4;;;;;;;;;;;;;
2019/05/21 01:45:41;;;;;;;27.8;19.5;;;;;;;;;;;;;
2019/05/21 01:48:06;;;;;;;30.1;20.2;;;;;;;;;;;;;
2019/05/21 01:50:31;;;;;;;27.5;19.5;;;;;;;;;;;;;
2019/05/21 01:52:56;;;;;;;26.1;19;;;;;;;;;;;;;
2019/05/21 01:55:21;;;;;;;30.8;20;;;;;;;;;;;;;
2019/05/21 01:57:46;;;;;;;31.2;21.1;;;;;;;;;;;;;
2019/05/21 02:00:11;;;;;;;30.9;20.5;;;;;;;;;;;;;
2019/05/21 02:02:36;;;;;;;30.2;20.4;;;;;;;;;;;;;
2019/05/21 02:05:01;;;;;;;31.8;20.5;;;;;;;;;;;;;
2019/05/21 02:07:27;;;;;;;35.1;22.3;;;;;;;;;;;;;
2019/05/21 02:09:57;;;;;;;30.8;20.5;;;;;;;;;;;;;
2019/05/21 02:12:22;;;;;;;32.2;20.3;;;;;;;;;;;;;
2019/05/21 02:14:47;;;;;;;31.6;20.6;;;;;;;;;;;;;
2019/05/21 02:17:12;;;;;;;39.4;21.8;;;;;;;;;;;;;
2019/05/21 02:19:38;;;;;;;30.8;20.9;;;;;;;;;;;;;
2019/05/21 02:22:03;;;;;;;32.3;20.9;;;;;;;;;;;;;
2019/05/21 02:24:32;;;;;;;32.6;21.8;;;;;;;;;;;;;
2019/05/21 02:26:57;;;;;;;35.5;22.9;;;;;;;;;;;;;
2019/05/21 02:29:22;;;;;;;37.8;24;;;;;;;;;;;;;
2019/05/21 02:31:47;;;;;;;36.2;23.7;;;;;;;;;;;;;
2019/05/21 02:34:12;;;;;;;37.8;24.3;;;;;;;;;;;;;
2019/05/21 02:36:37;;;;;;;42;25.2;;;;;;;;;;;;;
2019/05/21 02:39:04;;;;;;;30.5;20.3;;;;;;;;;;;;;
2019/05/21 02:41:28;;;;;;;24.5;17.5;;;;;;;;;;;;;
2019/05/21 02:44:02;;;;;;;18.8;13.7;;;;;;;;;;;;;
2019/05/21 02:46:27;;;;;;;14.6;11.7;;;;;;;;;;;;;
2019/05/21 02:48:53;;;;;;;12.8;10.5;;;;;;;;;;;;;
2019/05/21 02:51:18;;;;;;;12.1;10.4;;;;;;;;;;;;;
2019/05/21 02:53:43;;;;;;;10.2;9.1;;;;;;;;;;;;;
2019/05/21 02:56:08;;;;;;;11.1;9.9;;;;;;;;;;;;;
2019/05/21 02:58:33;;;;;;;11.9;9.7;;;;;;;;;;;;;
2019/05/21 03:01:08;;;;;;;12.1;10.3;;;;;;;;;;;;;
2019/05/21 03:03:26;;;;;;;14.2;10.9;;;;;;;;;;;;;
2019/05/21 03:05:49;;;;;;;12.9;10.7;;;;;;;;;;;;;
2019/05/21 03:08:14;;;;;;;14.4;11.9;;;;;;;;;;;;;
2019/05/21 03:10:39;;;;;;;15.2;11.1;;;;;;;;;;;;;
2019/05/21 03:13:04;;;;;;;14.5;11.7;;;;;;;;;;;;;
2019/05/21 03:15:29;;;;;;;13.3;10.9;;;;;;;;;;;;;
2019/05/21 03:17:54;;;;;;;12.8;10.8;;;;;;;;;;;;;
2019/05/21 03:20:20;;;;;;;13.7;11.2;;;;;;;;;;;;;
2019/05/21 03:22:45;;;;;;;13.9;11.6;;;;;;;;;;;;;
2019/05/21 03:25:10;;;;;;;16.7;12.3;;;;;;;;;;;;;
2019/05/21 03:27:35;;;;;;;15.8;12.4;;;;;;;;;;;;;
2019/05/21 03:30:00;;;;;;;15.9;12.2;;;;;;;;;;;;;
2019/05/21 03:32:26;;;;;;;14.9;11.4;;;;;;;;;;;;;
2019/05/21 03:34:51;;;;;;;15.6;11.9;;;;;;;;;;;;;
2019/05/21 03:37:16;;;;;;;15.4;12.2;;;;;;;;;;;;;
2019/05/21 03:39:41;;;;;;;17.9;12.6;;;;;;;;;;;;;
2019/05/21 03:42:06;;;;;;;16.3;12;;;;;;;;;;;;;
2019/05/21 03:44:31;;;;;;;15.2;12.3;;;;;;;;;;;;;
2019/05/21 03:46:56;;;;;;;15.8;11.5;;;;;;;;;;;;;
2019/05/21 03:49:22;;;;;;;14.5;11.3;;;;;;;;;;;;;
2019/05/21 03:51:47;;;;;;;14.7;11.1;;;;;;;;;;;;;
2019/05/21 03:54:12;;;;;;;14.2;10.7;;;;;;;;;;;;;
2019/05/21 03:56:37;;;;;;;14;10.6;;;;;;;;;;;;;
2019/05/21 03:59:02;;;;;;;15.3;11.1;;;;;;;;;;;;;
2019/05/21 04:02:38;;;;;;;15.3;10.9;;;;;;;11.41;93.14844;951.7065;;;;
2019/05/21 04:05:03;;;;;;;13.7;10.7;;;;;;;11.4;92.94531;951.7946;;;;
2019/05/21 04:07:29;;;;;;;14.2;10.5;;;;;;;;;;;;;
2019/05/21 04:09:53;;;;;;;14.8;11.2;;;;;;;;;;;;;
2019/05/21 04:12:18;;;;;;;16.5;10.7;;;;;;;;;;;;;
2019/05/21 04:14:53;;;;;;;13.2;10.5;;;;;;;;;;;;;
2019/05/21 04:17:22;;;;;;;15.1;10.7;;;;;;;;;;;;;
2019/05/21 04:19:39;;;;;;;15.6;11.4;;;;;;;;;;;;;
2019/05/21 04:22:03;;;;;;;15.6;11.2;;;;;;;;;;;;;
2019/05/21 04:24:28;;;;;;;15.4;11.4;;;;;;;;;;;;;
2019/05/21 04:26:59;;;;;;;14.7;11.1;;;;;;;;;;;;;
2019/05/21 04:29:24;;;;;;;16;11.1;;;;;;;;;;;;;
2019/05/21 04:31:49;;;;;;;14.4;11.1;;;;;;;;;;;;;
2019/05/21 04:34:20;;;;;;;12.1;9.8;;;;;;;;;;;;;
2019/05/21 04:36:47;;;;;;;13.4;9.9;;;;;;;;;;;;;
2019/05/21 04:39:12;;;;;;;13.8;10.5;;;;;;;;;;;;;
2019/05/21 04:41:37;;;;;;;15.5;11.1;;;;;;;;;;;;;
2019/05/21 04:44:03;;;;;;;13.1;10.6;;;;;;;;;;;;;
2019/05/21 04:46:28;;;;;;;14.5;10.8;;;;;;;;;;;;;
2019/05/21 04:48:53;;;;;;;12.6;9.6;;;;;;;;;;;;;
2019/05/21 04:51:18;;;;;;;11.7;9.2;;;;;;;;;;;;;
2019/05/21 04:53:43;;;;;;;12.3;9.3;;;;;;;;;;;;;
2019/05/21 04:56:08;;;;;;;13.6;10.1;;;;;;;;;;;;;
2019/05/21 04:58:33;;;;;;;10.8;8.8;;;;;;;;;;;;;
2019/05/21 05:00:58;;;;;;;10.8;8.7;;;;;;;;;;;;;
2019/05/21 05:03:23;;;;;;;10.7;7.9;;;;;;;;;;;;;
2019/05/21 05:05:48;;;;;;;11.3;8;;;;;;;;;;;;;
2019/05/21 05:08:14;;;;;;;11.4;8.3;;;;;;;;;;;;;
2019/05/21 05:10:39;;;;;;;12.1;8.8;;;;;;;;;;;;;
2019/05/21 05:13:04;;;;;;;10.4;7.8;;;;;;;;;;;;;
2019/05/21 05:15:29;;;;;;;10.1;8.1;;;;;;;;;;;;;
2019/05/21 05:17:54;;;;;;;9.4;7.7;;;;;;;;;;;;;
2019/05/21 05:20:19;;;;;;;10.2;7.8;;;;;;;;;;;;;
2019/05/21 05:22:44;;;;;;;10.3;7.5;;;;;;;;;;;;;
2019/05/21 05:25:10;;;;;;;8.8;7.1;;;;;;;;;;;;;
2019/05/21 05:27:35;;;;;;;9.7;7.1;;;;;;;;;;;;;
2019/05/21 05:30:00;;;;;;;10.6;7.4;;;;;;;;;;;;;
2019/05/21 05:32:25;;;;;;;11.1;8.4;;;;;;;;;;;;;
2019/05/21 05:34:50;;;;;;;12.1;8.3;;;;;;;;;;;;;
2019/05/21 05:37:15;;;;;;;10.6;8.5;;;;;;;;;;;;;
2019/05/21 05:39:40;;;;;;;10.3;8.3;;;;;;;;;;;;;
2019/05/21 05:42:06;;;;;;;11.3;9.3;;;;;;;;;;;;;
2019/05/21 05:44:31;;;;;;;11.4;8.4;;;;;;;;;;;;;
2019/05/21 05:46:56;;;;;;;10.5;8.6;;;;;;;;;;;;;
2019/05/21 05:49:26;;;;;;;11.2;8.9;;;;;;;;;;;;;
2019/05/21 05:51:46;;;;;;;12.9;9.1;;;;;;;;;;;;;
2019/05/21 05:54:11;;;;;;;11.8;9.1;;;;;;;;;;;;;
2019/05/21 05:56:36;;;;;;;11.3;8.5;;;;;;;;;;;;;
2019/05/21 05:59:01;;;;;;;11.8;8.4;;;;;;;;;;;;;
2019/05/21 06:01:27;;;;;;;13.3;8.7;;;;;;;;;;;;;
2019/05/21 06:03:51;;;;;;;10.1;7.9;;;;;;;;;;;;;
2019/05/21 06:06:16;;;;;;;11.9;8.2;;;;;;;;;;;;;
2019/05/21 06:08:41;;;;;;;10.1;7.7;;;;;;;;;;;;;
2019/05/21 06:11:08;;;;;;;11.4;8.6;;;;;;;;;;;;;
2019/05/21 06:13:33;;;;;;;11;8.4;;;;;;;;;;;;;
2019/05/21 06:15:58;;;;;;;10.4;7.6;;;;;;;;;;;;;
2019/05/21 06:18:23;;;;;;;10.3;7.6;;;;;;;;;;;;;
2019/05/21 06:20:48;;;;;;;9.2;7.7;;;;;;;;;;;;;
2019/05/21 06:23:13;;;;;;;10.4;8.2;;;;;;;;;;;;;
2019/05/21 06:25:38;;;;;;;11.8;8.4;;;;;;;;;;;;;
2019/05/21 06:28:03;;;;;;;10.6;7.6;;;;;;;;;;;;;
2019/05/21 06:30:28;;;;;;;12;8;;;;;;;;;;;;;
2019/05/21 06:32:54;;;;;;;10.2;7.5;;;;;;;;;;;;;
2019/05/21 06:35:19;;;;;;;10;7.4;;;;;;;;;;;;;
2019/05/21 06:37:44;;;;;;;10.1;7.5;;;;;;;;;;;;;
2019/05/21 06:40:11;;;;;;;10.4;7.6;;;;;;;;;;;;;
2019/05/21 06:42:36;;;;;;;11.8;6.8;;;;;;;;;;;;;
2019/05/21 06:45:01;;;;;;;10;7.2;;;;;;;;;;;;;
2019/05/21 06:47:26;;;;;;;10.1;6.4;;;;;;;;;;;;;
2019/05/21 06:49:51;;;;;;;7.8;5.2;;;;;;;;;;;;;
2019/05/21 06:52:16;;;;;;;6.2;5;;;;;;;;;;;;;
2019/05/21 06:54:41;;;;;;;6.4;5;;;;;;;;;;;;;
2019/05/21 06:57:07;;;;;;;10.2;6;;;;;;;;;;;;;
2019/05/21 06:59:32;;;;;;;8;5.2;;;;;;;;;;;;;
2019/05/21 07:01:57;;;;;;;7.2;4.9;;;;;;;;;;;;;
2019/05/21 07:04:22;;;;;;;8;5.6;;;;;;;;;;;;;
2019/05/21 07:06:47;;;;;;;7.5;5.5;;;;;;;;;;;;;
2019/05/21 07:09:12;;;;;;;8.5;6;;;;;;;;;;;;;
2019/05/21 07:11:37;;;;;;;8.4;6;;;;;;;;;;;;;
2019/05/21 07:14:03;;;;;;;7.1;5.5;;;;;;;;;;;;;
2019/05/21 07:16:28;;;;;;;7.1;5.7;;;;;;;;;;;;;
2019/05/21 07:18:53;;;;;;;8.7;5.5;;;;;;;;;;;;;
2019/05/21 07:21:18;;;;;;;6.8;5.5;;;;;;;;;;;;;
2019/05/21 07:23:43;;;;;;;7.6;5.4;;;;;;;;;;;;;
2019/05/21 07:26:09;;;;;;;5.9;4.7;;;;;;;;;;;;;
2019/05/21 07:28:34;;;;;;;6.1;4.7;;;;;;;;;;;;;
2019/05/21 07:30:59;;;;;;;6.6;4.6;;;;;;;;;;;;;
2019/05/21 07:33:26;;;;;;;6.9;5.1;;;;;;;;;;;;;
2019/05/21 07:35:51;;;;;;;5.6;4.5;;;;;;;;;;;;;
2019/05/21 07:38:16;;;;;;;6;4.9;;;;;;;;;;;;;
2019/05/21 07:40:41;;;;;;;6.3;4.6;;;;;;;;;;;;;
2019/05/21 07:43:06;;;;;;;5.2;4.3;;;;;;;;;;;;;
2019/05/21 07:45:31;;;;;;;5.8;4.3;;;;;;;;;;;;;
2019/05/21 07:47:56;;;;;;;4.9;4.1;;;;;;;;;;;;;
2019/05/21 07:50:23;;;;;;;4.4;4;;;;;;;;;;;;;
2019/05/21 07:52:47;;;;;;;4.3;3.5;;;;;;;;;;;;;
2019/05/21 07:55:13;;;;;;;4.2;3.7;;;;;;;;;;;;;
2019/05/21 07:57:38;;;;;;;4.4;3.2;;;;;;;;;;;;;
2019/05/21 08:00:03;;;;;;;4.3;3.2;;;;;;;;;;;;;
2019/05/21 08:02:28;;;;;;;3.9;3.1;;;;;;;;;;;;;
2019/05/21 08:04:53;;;;;;;4.3;3.3;;;;;;;;;;;;;
2019/05/21 08:07:18;;;;;;;3.6;3;;;;;;;;;;;;;
2019/05/21 08:09:43;;;;;;;3.4;3;;;;;;;;;;;;;
2019/05/21 08:12:10;;;;;;;3.5;2.8;;;;;;;;;;;;;
2019/05/21 08:14:39;;;;;;;3.7;2.9;;;;;;;;;;;;;
2019/05/21 08:17:04;;;;;;;6.9;3.2;;;;;;;;;;;;;
2019/05/21 08:19:29;;;;;;;4.1;3;;;;;;;;;;;;;
2019/05/21 08:21:54;;;;;;;4;2.9;;;;;;;;;;;;;
2019/05/21 08:24:19;;;;;;;4;3.3;;;;;;;;;;;;;
2019/05/21 08:26:44;;;;;;;4;3.3;;;;;;;;;;;;;
2019/05/21 08:29:11;;;;;;;5;3.4;;;;;;;;;;;;;
2019/05/21 08:31:40;;;;;;;3.9;3.4;;;;;;;;;;;;;
2019/05/21 08:34:06;;;;;;;4.5;3.2;;;;;;;;;;;;;
2019/05/21 08:36:31;;;;;;;4.8;3.5;;;;;;;;;;;;;
2019/05/21 08:38:56;;;;;;;6;4.8;;;;;;;;;;;;;
2019/05/21 08:41:21;;;;;;;4.2;3.5;;;;;;;;;;;;;
2019/05/21 08:43:46;;;;;;;5.3;3.1;;;;;;;;;;;;;
2019/05/21 08:46:11;;;;;;;3.2;2.9;;;;;;;;;;;;;
2019/05/21 08:48:37;;;;;;;3;2.5;;;;;;;;;;;;;
2019/05/21 08:51:02;;;;;;;3;2.6;;;;;;;;;;;;;
2019/05/21 08:53:27;;;;;;;2.9;2.6;;;;;;;;;;;;;
2019/05/21 08:55:52;;;;;;;4.3;2.6;;;;;;;;;;;;;
2019/05/21 08:58:17;;;;;;;3.2;2.7;;;;;;;;;;;;;
2019/05/21 09:00:42;;;;;;;3.7;2.6;;;;;;;;;;;;;
2019/05/21 09:03:07;;;;;;;2.4;2.2;;;;;;;;;;;;;
2019/05/21 09:05:32;;;;;;;3.4;2.6;;;;;;;;;;;;;
2019/05/21 09:07:57;;;;;;;3.2;2.3;;;;;;;;;;;;;
2019/05/21 09:10:23;;;;;;;2.8;2.5;;;;;;;;;;;;;
2019/05/21 09:12:48;;;;;;;3.2;2.5;;;;;;;;;;;;;
2019/05/21 09:15:13;;;;;;;2.8;2.5;;;;;;;;;;;;;
2019/05/21 09:17:38;;;;;;;2.7;2.4;;;;;;;;;;;;;
2019/05/21 09:20:03;;;;;;;2.8;2.6;;;;;;;;;;;;;
2019/05/21 09:22:28;;;;;;;3.2;2.8;;;;;;;;;;;;;
2019/05/21 09:24:53;;;;;;;2.8;2.6;;;;;;;;;;;;;
2019/05/21 09:27:18;;;;;;;3.3;2.5;;;;;;;;;;;;;
2019/05/21 09:29:43;;;;;;;2.9;2.6;;;;;;;;;;;;;
2019/05/21 09:32:08;;;;;;;3.3;2.8;;;;;;;;;;;;;
2019/05/21 09:34:36;;;;;;;4.1;2.8;;;;;;;;;;;;;
2019/05/21 09:37:01;;;;;;;3.5;2.6;;;;;;;;;;;;;
2019/05/21 09:39:29;;;;;;;3.6;2.3;;;;;;;;;;;;;
2019/05/21 09:41:54;;;;;;;2.8;2.3;;;;;;;;;;;;;
2019/05/21 09:44:21;;;;;;;2.8;2.5;;;;;;;;;;;;;
2019/05/21 09:46:46;;;;;;;2.7;2.4;;;;;;;;;;;;;
2019/05/21 09:49:11;;;;;;;2.6;2.4;;;;;;;;;;;;;
2019/05/21 09:51:36;;;;;;;4;2.6;;;;;;;;;;;;;
2019/05/21 09:54:01;;;;;;;2.9;2.5;;;;;;;;;;;;;
2019/05/21 09:56:32;;;;;;;3.8;2.8;;;;;;;;;;;;;
2019/05/21 09:58:51;;;;;;;3;2.4;;;;;;;;;;;;;
2019/05/21 10:01:30;;;;;;;3.2;2.4;;;;;;;;;;;;;
2019/05/21 10:03:43;;;;;;;3.4;2.6;;;;;;;;;;;;;
2019/05/21 10:06:07;;;;;;;3;2.4;;;;;;;;;;;;;
2019/05/21 10:08:32;;;;;;;2.7;2.4;;;;;;;;;;;;;
2019/05/21 10:10:57;;;;;;;2.9;2.5;;;;;;;;;;;;;
2019/05/21 10:13:22;;;;;;;3.9;2.6;;;;;;;;;;;;;
2019/05/21 10:15:47;;;;;;;2.7;2.5;;;;;;;;;;;;;
2019/05/21 10:18:12;;;;;;;2.7;2.4;;;;;;;;;;;;;
2019/05/21 10:20:38;;;;;;;3.4;2.4;;;;;;;;;;;;;
2019/05/21 10:23:03;;;;;;;2.8;2.3;;;;;;;;;;;;;
2019/05/21 10:25:28;;;;;;;3.1;2.8;;;;;;;;;;;;;
2019/05/21 10:27:54;;;;;;;2.8;2.4;;;;;;;;;;;;;
2019/05/21 10:30:18;;;;;;;2.6;2.4;;;;;;;;;;;;;
2019/05/21 10:32:44;;;;;;;3.6;2.6;;;;;;;;;;;;;
2019/05/21 10:35:09;;;;;;;3.3;2.7;;;;;;;;;;;;;
2019/05/21 10:37:34;;;;;;;3;2.7;;;;;;;;;;;;;
2019/05/21 10:39:59;;;;;;;2.5;2.3;;;;;;;;;;;;;
2019/05/21 10:42:24;;;;;;;3.2;2.8;;;;;;;;;;;;;
2019/05/21 10:44:49;;;;;;;3.6;3.2;;;;;;;;;;;;;
2019/05/21 10:47:21;;;;;;;4.1;3.2;;;;;;;;;;;;;
2019/05/21 10:49:47;;;;;;;6.5;5.9;;;;;;;;;;;;;
2019/05/21 10:52:13;;;;;;;5.5;4.4;;;;;;;;;;;;;
2019/05/21 10:54:39;;;;;;;4.5;3;;;;;;;;;;;;;
2019/05/21 10:57:04;;;;;;;3.9;2.6;;;;;;;;;;;;;
2019/05/21 10:59:29;;;;;;;3.6;2.6;;;;;;;;;;;;;
2019/05/21 11:02:16;;;;;;;3.6;2.4;;;;;;;;;;;;;
2019/05/21 11:04:35;;;;;;;3.9;2.4;;;;;;;;;;;;;
2019/05/21 11:06:45;;;;;;;3.1;2.8;;;;;;;;;;;;;
2019/05/21 11:09:16;;;;;;;2.8;2.5;;;;;;;;;;;;;
2019/05/21 11:11:35;;;;;;;3.2;2.5;;;;;;;;;;;;;
2019/05/21 11:14:01;;;;;;;2.4;2.2;;;;;;;;;;;;;
2019/05/21 11:16:26;;;;;;;2.7;2;;;;;;;;;;;;;
2019/05/21 11:18:51;;;;;;;3;2.3;;;;;;;;;;;;;
2019/05/21 11:21:16;;;;;;;3.1;2.4;;;;;;;;;;;;;
2019/05/21 11:23:41;;;;;;;2.6;2.1;;;;;;;;;;;;;
2019/05/21 11:26:06;;;;;;;2.4;2.1;;;;;;;;;;;;;
2019/05/21 11:28:32;;;;;;;3.2;2.2;;;;;;;;;;;;;
2019/05/21 11:30:57;;;;;;;2.9;2.4;;;;;;;;;;;;;
2019/05/21 11:33:22;;;;;;;2.2;2;;;;;;;;;;;;;
2019/05/21 11:35:47;;;;;;;2.8;1.9;;;;;;;;;;;;;
2019/05/21 11:38:13;;;;;;;2.7;2.2;;;;;;;;;;;;;
2019/05/21 11:41:44;;;;;;;2.6;2.2;;;;;;;11.9;91.39258;954.5725;;;;
2019/05/21 11:44:09;;;;;;;2.4;2.2;;;;;;;11.76;90.9209;954.5616;;;;
2019/05/21 11:46:35;;;;;;;2.3;2;;;;;;;11.77;90.99219;954.5942;;;;
2019/05/21 11:49:00;;;;;;;2.2;1.9;;;;;;;11.7;90.47363;954.588;;;;
2019/05/21 11:51:25;;;;;;;2.2;2;;;;;;;11.6;91.50488;954.6314;;;;
2019/05/21 11:53:53;;;;;;;2.9;2.1;;;;;;;11.64;92.16699;954.6909;;;;
2019/05/21 11:56:18;;;;;;;3.1;2.4;;;;;;;11.77;91.75098;954.8198;;;;
2019/05/21 11:58:45;;;;;;;2.6;2.2;;;;;;;11.87;91.11816;954.7842;;;;
2019/05/21 12:01:10;;;;;;;2.4;2.2;;;;;;;11.73;91.17188;954.6864;;;;
2019/05/21 12:03:36;;;;;;;2.4;2.2;;;;;;;11.65;91.91309;954.7457;;;;
2019/05/21 12:06:01;;;;;;;2.4;2;;;;;;;11.81;91.68848;954.8755;;;;
2019/05/21 12:08:29;;;;;;;2.3;2.1;;;;;;;12.03;91.4541;954.8022;;;;
2019/05/21 12:10:54;;;;;;;2.4;2.1;;;;;;;12.14;90.77832;954.7901;;;;
2019/05/21 12:13:19;;;;;;;3.2;2;;;;;;;12.07;90.38867;954.9294;;;;
2019/05/21 12:15:45;;;;;;;2.4;2;;;;;;;12.05;90.58203;954.8456;;;;
2019/05/21 12:18:10;;;;;;;2.1;1.9;;;;;;;11.99;91.02734;954.8193;;;;
2019/05/21 12:20:35;;;;;;;2.1;1.9;;;;;;;12.03;91.41895;954.8929;;;;
2019/05/21 12:23:01;;;;;;;3.5;2.3;;;;;;;11.98;91.94727;954.7564;;;;
2019/05/21 12:25:26;;;;;;;2.4;2;;;;;;;11.92;91.1875;954.8858;;;;
2019/05/21 12:27:51;;;;;;;3.2;2.1;;;;;;;11.81;92.37988;954.9003;;;;
2019/05/21 12:30:16;;;;;;;3.1;2.4;;;;;;;11.75;93.24316;954.9656;;;;
2019/05/21 12:32:41;;;;;;;3.4;2.3;;;;;;;;;;;;;
2019/05/21 12:35:06;;;;;;;3.5;2.6;;;;;;;;;;;;;
2019/05/21 12:37:31;;;;;;;2.9;2.6;;;;;;;;;;;;;
2019/05/21 12:39:56;;;;;;;3.4;2.7;;;;;;;;;;;;;
2019/05/21 12:42:21;;;;;;;3.3;3;;;;;;;;;;;;;
2019/05/21 12:44:46;;;;;;;3.5;2.8;;;;;;;;;;;;;
2019/05/21 12:47:12;;;;;;;3.1;2.8;;;;;;;;;;;;;
2019/05/21 12:49:37;;;;;;;11.2;8.1;;;;;;;;;;;;;
2019/05/21 12:52:02;;;;;;;14.9;13.1;;;;;;;;;;;;;
2019/05/21 12:54:27;;;;;;;5.9;3.6;;;;;;;;;;;;;
2019/05/21 12:56:52;;;;;;;10.4;9.4;;;;;;;;;;;;;
2019/05/21 12:59:17;;;;;;;7.7;6.9;;;;;;;;;;;;;
2019/05/21 13:01:42;;;;;;;7.2;6.1;;;;;;;;;;;;;
2019/05/21 13:04:08;;;;;;;4.1;3.2;;;;;;;;;;;;;
2019/05/21 13:06:33;;;;;;;3.6;3;;;;;;;;;;;;;
2019/05/21 13:09:00;;;;;;;3.3;2.9;;;;;;;;;;;;;
2019/05/21 13:11:30;;;;;;;3.3;3;;;;;;;;;;;;;
2019/05/21 13:13:56;;;;;;;5.2;3.1;;;;;;;;;;;;;
2019/05/21 13:16:21;;;;;;;3.9;2.7;;;;;;;;;;;;;
2019/05/21 13:18:46;;;;;;;3.5;3.1;;;;;;;;;;;;;
2019/05/21 13:21:18;;;;;;;3;2.7;;;;;;;;;;;;;
2019/05/21 13:23:51;;;;;;;3.2;2.7;;;;;;;;;;;;;
2019/05/21 13:26:16;;;;;;;3.3;2.9;;;;;;;;;;;;;
2019/05/21 13:28:42;;;;;;;4.2;2.8;;;;;;;;;;;;;
2019/05/21 13:31:07;;;;;;;3.8;3;;;;;;;;;;;;;
2019/05/21 13:33:32;;;;;;;3.1;2.8;;;;;;;;;;;;;
2019/05/21 13:35:57;;;;;;;3.7;2.6;;;;;;;;;;;;;
2019/05/21 13:38:22;;;;;;;3.7;2.7;;;;;;;;;;;;;
2019/05/21 13:40:47;;;;;;;3.8;3.3;;;;;;;;;;;;;
2019/05/21 13:43:13;;;;;;;3.7;3.2;;;;;;;;;;;;;
2019/05/21 13:45:38;;;;;;;3.8;2.4;;;;;;;;;;;;;
2019/05/21 13:48:03;;;;;;;3;2.7;;;;;;;;;;;;;
2019/05/21 13:50:28;;;;;;;3.1;2.1;;;;;;;;;;;;;
2019/05/21 13:52:53;;;;;;;3.8;2;;;;;;;;;;;;;
2019/05/21 13:55:18;;;;;;;3.3;2.6;;;;;;;;;;;;;
2019/05/21 13:57:43;;;;;;;3.3;1.9;;;;;;;;;;;;;
2019/05/21 14:00:15;;;;;;;3;2.6;;;;;;;;;;;;;
2019/05/21 14:02:33;;;;;;;2.9;2.5;;;;;;;;;;;;;
2019/05/21 14:04:59;;;;;;;3.3;2.4;;;;;;;;;;;;;
2019/05/21 14:07:24;;;;;;;3;2.1;;;;;;;;;;;;;
2019/05/21 14:09:49;;;;;;;2.7;1.6;;;;;;;;;;;;;
2019/05/21 14:12:14;;;;;;;3.1;1.8;;;;;;;;;;;;;
2019/05/21 14:14:39;;;;;;;2.7;1.6;;;;;;;;;;;;;
2019/05/21 14:17:05;;;;;;;3;1.9;;;;;;;;;;;;;
2019/05/21 14:19:30;;;;;;;2.8;1.9;;;;;;;;;;;;;
2019/05/21 14:21:55;;;;;;;7.1;4.4;;;;;;;;;;;;;
2019/05/21 14:24:20;;;;;;;4.9;2.5;;;;;;;;;;;;;
2019/05/21 14:26:45;;;;;;;3.2;2.2;;;;;;;;;;;;;
2019/05/21 14:29:10;;;;;;;2.2;2;;;;;;;;;;;;;
2019/05/21 14:31:35;;;;;;;2.5;2.1;;;;;;;;;;;;;
2019/05/21 14:34:01;;;;;;;3.2;2.4;;;;;;;;;;;;;
2019/05/21 14:36:26;;;;;;;2.2;2;;;;;;;;;;;;;
2019/05/21 14:38:51;;;;;;;2.6;2.3;;;;;;;;;;;;;
2019/05/21 14:41:16;;;;;;;4;2.5;;;;;;;;;;;;;
2019/05/21 14:43:41;;;;;;;3.4;2.6;;;;;;;;;;;;;
2019/05/21 14:46:06;;;;;;;4;2.6;;;;;;;;;;;;;
2019/05/21 14:48:31;;;;;;;3.4;2.1;;;;;;;;;;;;;
2019/05/21 14:50:56;;;;;;;2.6;2.4;;;;;;;;;;;;;
2019/05/21 14:53:21;;;;;;;3.3;2.4;;;;;;;;;;;;;
2019/05/21 14:55:47;;;;;;;3.9;2.4;;;;;;;;;;;;;
2019/05/21 14:58:12;;;;;;;4.5;3.7;;;;;;;;;;;;;
2019/05/21 15:00:37;;;;;;;2.1;1.9;;;;;;;;;;;;;
2019/05/21 15:03:02;;;;;;;2.2;1.8;;;;;;;;;;;;;
2019/05/21 15:05:27;;;;;;;2.1;1.8;;;;;;;;;;;;;
2019/05/21 15:07:52;;;;;;;2.6;1.9;;;;;;;;;;;;;
2019/05/21 15:10:17;;;;;;;1.7;1.5;;;;;;;;;;;;;
2019/05/21 15:12:42;;;;;;;2;1.5;;;;;;;;;;;;;
2019/05/21 15:15:08;;;;;;;1.7;1.5;;;;;;;;;;;;;
2019/05/21 15:17:33;;;;;;;2.6;2.4;;;;;;;;;;;;;
2019/05/21 15:20:01;;;;;;;1.5;1.4;;;;;;;;;;;;;
2019/05/21 15:22:23;;;;;;;6.4;5.7;;;;;;;;;;;;;
2019/05/21 15:24:48;;;;;;;2.5;1.4;;;;;;;;;;;;;
2019/05/21 15:27:13;;;;;;;2.8;1.6;;;;;;;;;;;;;
2019/05/21 15:29:39;;;;;;;1.7;1.3;;;;;;;;;;;;;
2019/05/21 15:32:04;;;;;;;1.7;1.5;;;;;;;;;;;;;
2019/05/21 15:34:29;;;;;;;2.5;1.7;;;;;;;;;;;;;
2019/05/21 15:36:54;;;;;;;3.2;1.4;;;;;;;;;;;;;
2019/05/21 15:39:19;;;;;;;1.6;1.3;;;;;;;;;;;;;
2019/05/21 15:41:44;;;;;;;2.3;1.4;;;;;;;;;;;;;
2019/05/21 15:44:10;;;;;;;4.4;1.5;;;;;;;;;;;;;
2019/05/21 15:46:34;;;;;;;3;1.8;;;;;;;;;;;;;
2019/05/21 15:49:00;;;;;;;2.4;1.4;;;;;;;;;;;;;
2019/05/21 15:51:25;;;;;;;1.7;1.6;;;;;;;;;;;;;
2019/05/21 15:53:53;;;;;;;1.7;1.4;;;;;;;;;;;;;
2019/05/21 15:56:18;;;;;;;2;1.8;;;;;;;;;;;;;
2019/05/21 15:58:47;;;;;;;2;1.7;;;;;;;;;;;;;
2019/05/21 16:01:12;;;;;;;1.6;1.5;;;;;;;;;;;;;
2019/05/21 16:03:37;;;;;;;3.9;1.9;;;;;;;;;;;;;
2019/05/21 16:06:02;;;;;;;1.8;1.7;;;;;;;;;;;;;
2019/05/21 16:08:27;;;;;;;2.5;1.8;;;;;;;;;;;;;
2019/05/21 16:10:52;;;;;;;2;1.8;;;;;;;;;;;;;
2019/05/21 16:13:17;;;;;;;3.4;2;;;;;;;;;;;;;
2019/05/21 16:15:42;;;;;;;3.2;2;;;;;;;;;;;;;
2019/05/21 16:18:08;;;;;;;3.2;1.9;;;;;;;;;;;;;
2019/05/21 16:20:33;;;;;;;2.7;1.6;;;;;;;;;;;;;
2019/05/21 16:22:58;;;;;;;2.4;1.6;;;;;;;;;;;;;
2019/05/21 16:25:23;;;;;;;3.3;2.1;;;;;;;;;;;;;
2019/05/21 16:27:48;;;;;;;3.1;2.4;;;;;;;;;;;;;
2019/05/21 16:30:13;;;;;;;2.3;2.1;;;;;;;;;;;;;
2019/05/21 16:32:38;;;;;;;2.4;2.2;;;;;;;;;;;;;
2019/05/21 16:35:03;;;;;;;3.4;2.7;;;;;;;;;;;;;
2019/05/21 16:37:29;;;;;;;4.1;2.9;;;;;;;;;;;;;
2019/05/21 16:39:54;;;;;;;4.2;3.8;;;;;;;;;;;;;
2019/05/21 16:42:19;;;;;;;6.2;5.5;;;;;;;;;;;;;
2019/05/21 16:44:44;;;;;;;3.1;2.5;;;;;;;;;;;;;
2019/05/21 16:47:09;;;;;;;3.2;2.7;;;;;;;;;;;;;
2019/05/21 16:49:34;;;;;;;3.6;3;;;;;;;;;;;;;
2019/05/21 16:51:59;;;;;;;2.9;2.6;;;;;;;;;;;;;
2019/05/21 16:54:25;;;;;;;3.2;2.5;;;;;;;;;;;;;
2019/05/21 16:56:50;;;;;;;4;3.1;;;;;;;;;;;;;
2019/05/21 16:59:15;;;;;;;4.5;3.5;;;;;;;;;;;;;
2019/05/21 17:01:40;;;;;;;3.2;2.2;;;;;;;;;;;;;
2019/05/21 17:04:05;;;;;;;3.8;2.9;;;;;;;;;;;;;
2019/05/21 17:06:30;;;;;;;3.4;2.8;;;;;;;;;;;;;
2019/05/21 17:08:55;;;;;;;3.3;3;;;;;;;;;;;;;
2019/05/21 17:11:20;;;;;;;2.7;2.4;;;;;;;;;;;;;
2019/05/21 17:13:46;;;;;;;2.7;2.5;;;;;;;;;;;;;
2019/05/21 17:16:11;;;;;;;3.7;3;;;;;;;;;;;;;
2019/05/21 17:18:36;;;;;;;5.1;3.6;;;;;;;;;;;;;
2019/05/21 17:21:01;;;;;;;2.8;2.4;;;;;;;;;;;;;
2019/05/21 17:23:26;;;;;;;2.9;2.6;;;;;;;;;;;;;
2019/05/21 17:25:51;;;;;;;2.8;2.5;;;;;;;;;;;;;
2019/05/21 17:28:16;;;;;;;3.3;2.7;;;;;;;;;;;;;
2019/05/21 17:30:41;;;;;;;3.2;2.8;;;;;;;;;;;;;
2019/05/21 17:33:06;;;;;;;3.2;2.9;;;;;;;;;;;;;
2019/05/21 17:35:32;;;;;;;3.5;2.4;;;;;;;;;;;;;
2019/05/21 17:37:57;;;;;;;3.1;2.8;;;;;;;;;;;;;
2019/05/21 17:40:24;;;;;;;3.1;2.8;;;;;;;;;;;;;
2019/05/21 17:42:49;;;;;;;3.4;3;;;;;;;;;;;;;
2019/05/21 17:45:16;;;;;;;3.6;3.3;;;;;;;;;;;;;
2019/05/21 17:47:41;;;;;;;3.3;2.9;;;;;;;;;;;;;
2019/05/21 17:50:08;;;;;;;3.2;2.9;;;;;;;;;;;;;
2019/05/21 17:52:33;;;;;;;3.5;3.1;;;;;;;;;;;;;
2019/05/21 17:54:58;;;;;;;3.2;2.9;;;;;;;;;;;;;
2019/05/21 17:57:24;;;;;;;4.1;2.9;;;;;;;;;;;;;
2019/05/21 17:59:49;;;;;;;3.6;3.3;;;;;;;;;;;;;
2019/05/21 18:02:14;;;;;;;3.9;3.5;;;;;;;;;;;;;
2019/05/21 18:04:42;;;;;;;4.2;3.6;;;;;;;;;;;;;
2019/05/21 18:07:09;;;;;;;3.3;3;;;;;;;;;;;;;
2019/05/21 18:09:34;;;;;;;4.3;3;;;;;;;;;;;;;
2019/05/21 18:11:59;;;;;;;4.5;3.2;;;;;;;;;;;;;
2019/05/21 18:14:24;;;;;;;4.5;3.5;;;;;;;;;;;;;
2019/05/21 18:16:54;;;;;;;4.4;3.3;;;;;;;;;;;;;
2019/05/21 18:19:20;;;;;;;3.6;3.3;;;;;;;;;;;;;
2019/05/21 18:21:45;;;;;;;4.5;3.6;;;;;;;;;;;;;
2019/05/21 18:24:10;;;;;;;3.8;3.5;;;;;;;;;;;;;
2019/05/21 18:26:35;;;;;;;3.5;3.2;;;;;;;;;;;;;
2019/05/21 18:29:00;;;;;;;3.9;3.5;;;;;;;;;;;;;
2019/05/21 18:31:25;;;;;;;4.6;3.4;;;;;;;;;;;;;
2019/05/21 18:33:50;;;;;;;4.5;4.1;;;;;;;;;;;;;
2019/05/21 18:36:15;;;;;;;3.3;3;;;;;;;;;;;;;
2019/05/21 18:38:40;;;;;;;3.2;2.9;;;;;;;;;;;;;
2019/05/21 18:41:05;;;;;;;4;3.2;;;;;;;;;;;;;
2019/05/21 18:43:31;;;;;;;4.5;4.1;;;;;;;;;;;;;
2019/05/21 18:45:56;;;;;;;3.8;3.2;;;;;;;;;;;;;
2019/05/21 18:48:21;;;;;;;4.8;3.3;;;;;;;;;;;;;
2019/05/21 18:50:46;;;;;;;5.8;3.3;;;;;;;;;;;;;
2019/05/21 18:53:12;;;;;;;3.8;3.3;;;;;;;;;;;;;
2019/05/21 18:55:37;;;;;;;4.3;3.8;;;;;;;;;;;;;
2019/05/21 18:58:02;;;;;;;5.3;4;;;;;;;;;;;;;
2019/05/21 19:00:27;;;;;;;4.1;3.8;;;;;;;;;;;;;
2019/05/21 19:02:52;;;;;;;4.7;3.8;;;;;;;;;;;;;
2019/05/21 19:05:17;;;;;;;4;3.7;;;;;;;;;;;;;
2019/05/21 19:07:42;;;;;;;3.6;3.3;;;;;;;;;;;;;
2019/05/21 19:10:08;;;;;;;6;4.1;;;;;;;;;;;;;
2019/05/21 19:12:33;;;;;;;4.2;3.8;;;;;;;;;;;;;
2019/05/21 19:14:58;;;;;;;4.6;4.2;;;;;;;;;;;;;
2019/05/21 19:17:23;;;;;;;4.5;4.1;;;;;;;;;;;;;
2019/05/21 19:19:48;;;;;;;4.7;4.2;;;;;;;;;;;;;
2019/05/21 19:22:13;;;;;;;5;4.5;;;;;;;;;;;;;
2019/05/21 19:24:39;;;;;;;5.2;4.7;;;;;;;;;;;;;
2019/05/21 19:27:04;;;;;;;5.3;4.8;;;;;;;;;;;;;
2019/05/21 19:29:29;;;;;;;5.7;4.7;;;;;;;;;;;;;
2019/05/21 19:31:54;;;;;;;5.4;4.9;;;;;;;;;;;;;
2019/05/21 19:34:19;;;;;;;4.7;4.3;;;;;;;;;;;;;
2019/05/21 19:36:44;;;;;;;6;5.1;;;;;;;;;;;;;
2019/05/21 19:39:10;;;;;;;5.2;4.7;;;;;;;;;;;;;
2019/05/21 19:41:35;;;;;;;4.7;4.3;;;;;;;;;;;;;
2019/05/21 19:44:00;;;;;;;5.3;4.8;;;;;;;;;;;;;
2019/05/21 19:46:29;;;;;;;5.5;5;;;;;;;;;;;;;
2019/05/21 19:48:54;;;;;;;5.3;4.7;;;;;;;;;;;;;
2019/05/21 19:51:20;;;;;;;5.3;4.8;;;;;;;;;;;;;
2019/05/21 19:53:44;;;;;;;7.3;5.3;;;;;;;;;;;;;
2019/05/21 19:56:09;;;;;;;5.1;4.6;;;;;;;;;;;;;